Time;durP1;ratioP1;P1;durP2;ratioP2;P2;SDS_P1;SDS_P2;PMS_P1;PMS_P2;Temp;Humidity;BMP_temperature;BMP_pressure;BME280_temperature;BME280_humidity;BME280_pressure;Samples;Min_cycle;Max_cycle;Signal;HPM_P1;HPM_P2
2021/03/08 00:00:43;;;;;;;15.63;10.18;;;14.20;53.50;;;;;;5994395;23;20329;-83
2021/03/08 00:03:51;;;;;;;15.05;9.60;;;14.20;53.60;;;;;;5933485;24;20031;-84
2021/03/08 00:07:18;;;;;;;14.27;8.82;;;14.10;53.50;;;;;;6068812;23;20026;-84
2021/03/08 00:10:37;;;;;;;17.55;9.88;;;14.20;53.60;;;;;;6048154;23;20026;-85
2021/03/08 00:14:01;;;;;;;14.60;9.32;;;14.10;53.70;;;;;;6160641;23;20381;-83
2021/03/08 00:17:47;;;;;;;;;;;;;;;;;;;;;
2021/03/08 00:21:14;;;;;;;14.38;9.35;;;14.10;53.70;;;;;;6073826;23;20030;-84
2021/03/08 00:28:09;;;;;;;16.85;10.00;;;14.10;53.70;;;;;;6091653;23;20018;-85
2021/03/08 00:35:04;;;;;;;;;;;;;;;;;;;;;
2021/03/08 00:41:49;;;;;;;17.02;10.63;;;14.10;53.90;;;;;;5980280;24;20028;-83
2021/03/08 00:45:33;;;;;;;12.52;8.52;;;14.00;53.80;;;;;;5866949;24;20026;-83
2021/03/08 00:48:59;;;;;;;15.30;7.68;;;14.00;53.90;;;;;;5902252;24;20037;-83
2021/03/08 00:52:16;;;;;;;10.00;6.63;;;14.00;53.80;;;;;;5962960;23;20309;-82
2021/03/08 00:55:26;;;;;;;11.82;6.03;;;14.00;53.80;;;;;;6195718;23;20321;-84
2021/03/08 00:59:21;;;;;;;;;;;;;;;;;;;;;
2021/03/08 01:02:56;;;;;;;;;;;;;;;;;;;;;
2021/03/08 01:06:40;;;;;;;11.77;4.97;;;14.00;53.80;;;;;;6154505;23;20014;-85
2021/03/08 01:10:18;;;;;;;;;;;;;;;;;;;;;
2021/03/08 01:14:18;;;;;;;10.43;3.35;;;13.90;53.70;;;;;;6155164;23;20021;-83
2021/03/08 01:17:55;;;;;;;;;;;;;;;;;;;;;
2021/03/08 01:21:33;;;;;;;7.70;2.75;;;13.90;53.70;;;;;;6038903;23;20019;-85
2021/03/08 01:25:07;;;;;;;6.97;2.80;;;13.90;53.70;;;;;;6088224;23;20018;-82
2021/03/08 01:28:13;;;;;;;;;;;;;;;;;;;;;
2021/03/08 01:31:34;;;;;;;6.63;1.98;;;13.80;53.50;;;;;;6214715;23;20023;-83
2021/03/08 01:42:27;;;;;;;8.00;1.95;;;13.80;53.50;;;;;;6207253;23;20521;-83
2021/03/08 01:50:06;;;;;;;7.05;1.70;;;13.80;53.40;;;;;;6065063;23;20019;-85
2021/03/08 01:52:53;;;;;;;5.97;2.05;;;13.70;53.50;;;;;;6024269;23;20023;-85
2021/03/08 01:59:38;;;;;;;6.43;1.55;;;13.70;53.30;;;;;;6067342;23;20026;-83
2021/03/08 02:02:57;;;;;;;8.35;1.95;;;13.60;53.30;;;;;;6185994;23;20450;-83
2021/03/08 02:06:03;;;;;;;6.10;1.50;;;13.80;53.40;;;;;;6208544;23;20505;-82
2021/03/08 02:13:06;;;;;;;6.60;1.80;;;13.60;53.30;;;;;;6179065;23;20017;-84
2021/03/08 02:16:31;;;;;;;8.35;1.33;;;13.60;53.30;;;;;;6186354;23;20032;-83
2021/03/08 02:19:57;;;;;;;7.90;1.90;;;13.60;53.30;;;;;;6163689;23;20013;-83
2021/03/08 02:27:17;;;;;;;4.00;1.17;;;13.60;53.30;;;;;;6186990;23;20017;-84
2021/03/08 02:30:48;;;;;;;4.90;1.42;;;13.50;53.30;;;;;;6151220;23;20021;-85
2021/03/08 02:37:24;;;;;;;4.85;1.23;;;13.50;53.30;;;;;;6118016;23;20103;-84
2021/03/08 02:43:40;;;;;;;7.50;1.73;;;13.60;53.40;;;;;;6185849;23;20099;-83
2021/03/08 02:46:55;;;;;;;8.68;1.58;;;13.50;53.30;;;;;;6162000;23;20031;-83
2021/03/08 02:50:25;;;;;;;7.75;1.70;;;13.50;53.30;;;;;;6161314;23;20064;-83
2021/03/08 02:53:41;;;;;;;7.22;1.48;;;13.50;53.30;;;;;;6174705;23;20314;-83
2021/03/08 02:57:21;;;;;;;7.22;1.80;;;13.50;53.40;;;;;;6163261;23;20028;-84
2021/03/08 03:03:57;;;;;;;7.72;1.30;;;13.50;53.50;;;;;;6125606;23;20308;-83
2021/03/08 03:14:18;;;;;;;;;;;;;;;;;;;;;
2021/03/08 03:17:58;;;;;;;;;;;;;;;;;;;;;
2021/03/08 03:20:55;;;;;;;6.05;1.50;;;13.30;53.30;;;;;;6187292;23;20021;-84
2021/03/08 03:24:19;;;;;;;8.85;1.65;;;13.30;53.40;;;;;;6187135;23;20017;-85
2021/03/08 03:27:56;;;;;;;5.85;1.45;;;13.40;53.40;;;;;;6164703;23;20040;-83
2021/03/08 03:31:05;;;;;;;;;;;;;;;;;;;;;
2021/03/08 03:33:52;;;;;;;8.07;2.00;;;13.30;53.40;;;;;;6188696;23;20445;-83
2021/03/08 03:40:52;;;;;;;5.57;1.25;;;13.30;53.40;;;;;;6189059;23;20287;-85
2021/03/08 03:44:10;;;;;;;6.18;1.90;;;13.30;53.40;;;;;;6188093;23;20330;-82
2021/03/08 03:47:34;;;;;;;;;;;;;;;;;;;;;
2021/03/08 03:58:26;;;;;;;;;;;;;;;;;;;;;
2021/03/08 04:01:55;;;;;;;;;;;;;;;;;;;;;
2021/03/08 04:08:52;;;;;;;;;;;;;;;;;;;;;
2021/03/08 04:12:04;;;;;;;5.45;1.42;;;13.20;53.50;;;;;;6188321;23;20013;-83
2021/03/08 04:15:35;;;;;;;6.25;1.80;;;13.20;53.50;;;;;;6187077;23;20024;-85
2021/03/08 04:19:06;;;;;;;;;;;;;;;;;;;;;
2021/03/08 04:22:24;;;;;;;;;;;;;;;;;;;;;
2021/03/08 04:25:36;;;;;;;6.72;1.25;;;13.20;53.60;;;;;;6153769;23;20041;-83
2021/03/08 04:32:39;;;;;;;;;;;;;;;;;;;;;
2021/03/08 04:36:41;;;;;;;;;;;;;;;;;;;;;
2021/03/08 04:39:57;;;;;;;8.57;2.10;;;13.10;53.70;;;;;;6186720;23;20028;-84
2021/03/08 04:42:55;;;;;;;6.53;1.58;;;13.10;53.70;;;;;;6164932;23;20468;-84
2021/03/08 04:46:29;;;;;;;5.78;1.80;;;13.10;53.70;;;;;;6167702;23;20414;-83
2021/03/08 04:50:02;;;;;;;5.60;1.27;;;13.00;53.60;;;;;;6169712;23;20016;-84
2021/03/08 04:53:20;;;;;;;7.30;1.55;;;13.10;53.60;;;;;;6139885;23;20020;-83
2021/03/08 04:57:01;;;;;;;3.90;1.50;;;13.10;53.70;;;;;;6191912;23;20041;-82
2021/03/08 05:00:29;;;;;;;6.55;1.33;;;13.10;53.60;;;;;;6194681;23;20020;-83
2021/03/08 05:03:52;;;;;;;6.20;1.65;;;13.00;53.60;;;;;;6197101;23;20052;-84
2021/03/08 05:07:03;;;;;;;7.45;1.35;;;13.00;53.70;;;;;;6180067;23;20017;-83
2021/03/08 05:09:57;;;;;;;6.30;1.20;;;13.00;53.70;;;;;;6165988;23;20020;-83
2021/03/08 05:13:34;;;;;;;7.05;2.03;;;13.00;53.70;;;;;;6190395;23;20040;-83
2021/03/08 05:16:13;;;;;;;6.88;1.50;;;13.00;53.40;;;;;;6097121;23;20026;-80
2021/03/08 05:18:40;;;;;;;7.28;1.50;;;13.00;53.30;;;;;;6083508;23;20053;-81
2021/03/08 05:21:10;;;;;;;7.10;1.25;;;13.00;53.40;;;;;;6183873;23;20024;-80
2021/03/08 05:23:57;;;;;;;9.82;2.30;;;13.00;53.70;;;;;;6227834;23;20456;-85
2021/03/08 05:26:36;;;;;;;12.90;2.88;;;13.20;54.40;;;;;;6193945;23;20025;-84
2021/03/08 05:29:03;;;;;;;12.75;3.08;;;13.10;54.60;;;;;;6191847;23;20074;-83
2021/03/08 05:31:34;;;;;;;8.45;2.50;;;13.20;55.20;;;;;;6202052;23;20008;-85
2021/03/08 05:34:04;;;;;;;6.25;2.35;;;13.30;55.40;;;;;;6191601;23;20020;-83
2021/03/08 05:36:37;;;;;;;9.38;2.17;;;13.30;55.50;;;;;;6217827;23;20040;-82
2021/03/08 05:39:04;;;;;;;8.93;2.38;;;13.40;55.90;;;;;;6201415;23;20083;-82
2021/03/08 05:41:41;;;;;;;7.65;2.00;;;13.40;55.90;;;;;;6191726;23;20091;-83
2021/03/08 05:44:13;;;;;;;7.90;1.77;;;13.50;56.00;;;;;;6166765;23;20012;-84
2021/03/08 05:46:53;;;;;;;6.78;1.77;;;13.50;56.30;;;;;;6191373;23;20092;-80
2021/03/08 05:49:35;;;;;;;6.13;1.90;;;13.60;56.70;;;;;;6227332;23;20024;-81
2021/03/08 05:52:07;;;;;;;16.63;2.97;;;13.70;56.90;;;;;;6191424;23;20008;-86
2021/03/08 05:54:51;;;;;;;11.80;3.33;;;13.80;57.20;;;;;;6227371;23;20020;-83
2021/03/08 05:57:35;;;;;;;9.82;2.72;;;14.00;57.30;;;;;;6201674;23;20020;-84
2021/03/08 06:00:24;;;;;;;15.75;2.50;;;14.10;57.60;;;;;;6192056;23;20009;-84
2021/03/08 06:03:08;;;;;;;12.38;3.05;;;14.30;58.40;;;;;;6166633;23;20050;-84
2021/03/08 06:05:53;;;;;;;7.00;2.70;;;14.30;58.20;;;;;;6191323;23;20087;-83
2021/03/08 06:08:51;;;;;;;10.13;2.65;;;14.40;58.00;;;;;;6191123;23;20020;-82
2021/03/08 06:11:19;;;;;;;6.05;1.75;;;14.50;58.00;;;;;;6191911;23;20016;-84
2021/03/08 06:13:47;;;;;;;7.13;1.85;;;14.50;57.90;;;;;;6167457;23;20050;-84
2021/03/08 06:16:24;;;;;;;5.13;1.33;;;14.60;57.80;;;;;;6215984;23;20013;-78
2021/03/08 06:18:52;;;;;;;9.57;1.88;;;14.70;58.10;;;;;;6165726;23;20313;-81
2021/03/08 06:21:19;;;;;;;7.15;1.70;;;14.70;58.10;;;;;;6217187;23;20062;-83
2021/03/08 06:23:45;;;;;;;10.55;2.17;;;14.80;58.00;;;;;;6226317;23;20008;-82
2021/03/08 06:26:12;;;;;;;12.48;2.25;;;14.80;57.80;;;;;;6201260;23;20012;-81
2021/03/08 06:28:39;;;;;;;39.08;3.72;;;14.90;57.80;;;;;;6217102;23;20019;-81
2021/03/08 06:31:06;;;;;;;9.50;1.70;;;14.90;57.80;;;;;;6216437;23;20083;-88
2021/03/08 06:33:43;;;;;;;12.90;2.40;;;15.00;57.90;;;;;;6168721;23;20013;-82
2021/03/08 06:36:12;;;;;;;14.88;1.70;;;15.00;57.90;;;;;;6226392;23;20021;-82
2021/03/08 06:38:38;;;;;;;7.90;2.00;;;15.00;57.90;;;;;;6201212;23;20023;-81
2021/03/08 06:41:07;;;;;;;11.50;2.00;;;15.00;57.70;;;;;;6217371;23;20016;-81
2021/03/08 06:43:33;;;;;;;12.30;1.58;;;15.10;57.80;;;;;;6217560;23;20295;-84
2021/03/08 06:45:59;;;;;;;9.75;1.73;;;15.10;57.70;;;;;;6190837;23;20035;-82
2021/03/08 06:48:25;;;;;;;8.38;1.40;;;15.20;58.50;;;;;;6217943;23;20016;-81
2021/03/08 06:51:13;;;;;;;11.95;2.42;;;15.20;57.90;;;;;;6219753;23;20020;-81
2021/03/08 06:53:41;;;;;;;12.68;2.10;;;15.30;57.70;;;;;;6219223;23;20012;-84
2021/03/08 06:56:17;;;;;;;8.65;1.90;;;15.30;58.00;;;;;;6202695;23;20021;-84
2021/03/08 06:58:45;;;;;;;14.25;1.80;;;15.30;58.00;;;;;;6192984;23;20017;-83
2021/03/08 07:01:31;;;;;;;8.63;1.98;;;15.40;57.90;;;;;;6203082;23;20008;-83
2021/03/08 07:03:59;;;;;;;12.50;1.70;;;15.40;57.80;;;;;;6217637;23;20087;-84
2021/03/08 07:06:26;;;;;;;9.60;1.67;;;15.50;57.90;;;;;;6193105;23;20019;-82
2021/03/08 07:09:01;;;;;;;7.30;1.40;;;15.50;57.80;;;;;;6202737;23;20013;-83
2021/03/08 07:11:27;;;;;;;8.60;1.13;;;15.50;57.70;;;;;;6193611;23;20026;-83
2021/03/08 07:13:53;;;;;;;8.95;2.15;;;15.50;57.80;;;;;;6227574;23;20009;-84
2021/03/08 07:16:19;;;;;;;16.33;1.48;;;15.50;58.00;;;;;;6192887;23;20013;-84
2021/03/08 07:18:57;;;;;;;9.07;1.85;;;15.60;58.00;;;;;;6193186;23;20092;-83
2021/03/08 07:21:23;;;;;;;10.05;1.65;;;15.60;57.80;;;;;;6168649;23;20016;-86
2021/03/08 07:24:05;;;;;;;13.48;1.77;;;15.60;57.80;;;;;;6218830;23;20009;-83
2021/03/08 07:26:31;;;;;;;9.00;1.52;;;15.60;58.10;;;;;;6192956;23;20012;-83
2021/03/08 07:29:12;;;;;;;10.68;1.70;;;15.60;57.90;;;;;;6218294;23;20437;-84
2021/03/08 07:31:40;;;;;;;11.02;1.20;;;15.70;57.80;;;;;;6168145;23;20008;-84
2021/03/08 07:34:09;;;;;;;6.20;1.50;;;15.70;57.80;;;;;;6202842;23;20008;-85
2021/03/08 07:37:00;;;;;;;11.52;1.58;;;15.70;57.80;;;;;;6193088;23;20096;-81
2021/03/08 07:39:27;;;;;;;8.48;1.60;;;15.70;57.80;;;;;;6228691;23;20476;-83
2021/03/08 07:41:59;;;;;;;10.27;2.20;;;15.80;57.70;;;;;;6192428;23;20012;-83
2021/03/08 07:44:30;;;;;;;11.00;1.88;;;15.80;57.50;;;;;;6193096;23;20344;-85
2021/03/08 07:47:14;;;;;;;15.02;1.95;;;15.80;56.20;;;;;;6163293;23;20024;-84
2021/03/08 07:50:47;;;;;;;16.23;2.13;;;15.70;56.60;;;;;;6193136;23;20468;-83
2021/03/08 07:57:21;;;;;;;19.52;3.28;;;15.70;56.80;;;;;;6137961;23;20074;-85
2021/03/08 07:59:56;;;;;;;20.10;2.35;;;15.70;54.70;;;;;;6193338;23;20051;-90
2021/03/08 08:02:22;;;;;;;18.35;2.92;;;15.60;55.40;;;;;;6168169;23;20013;-82
2021/03/08 08:04:48;;;;;;;12.98;2.63;;;15.60;56.10;;;;;;6227297;23;20015;-79
2021/03/08 08:07:17;;;;;;;12.38;2.20;;;15.60;56.30;;;;;;6218345;23;20306;-79
2021/03/08 08:09:44;;;;;;;7.97;1.92;;;15.70;56.50;;;;;;6228742;23;20013;-78
2021/03/08 08:12:18;;;;;;;18.70;2.30;;;15.70;56.40;;;;;;6218409;23;20088;-79
2021/03/08 08:14:44;;;;;;;12.93;2.20;;;15.70;56.40;;;;;;6228861;23;20017;-79
2021/03/08 08:17:15;;;;;;;17.63;2.28;;;15.70;56.50;;;;;;6192332;23;20032;-81
2021/03/08 08:19:44;;;;;;;13.77;1.88;;;15.70;56.40;;;;;;6202274;23;20321;-82
2021/03/08 08:22:24;;;;;;;15.82;2.58;;;15.80;56.50;;;;;;6228663;23;20086;-79
2021/03/08 08:24:54;;;;;;;16.33;2.03;;;15.80;56.50;;;;;;6217872;23;20314;-80
2021/03/08 08:27:21;;;;;;;16.55;2.00;;;15.80;56.50;;;;;;6218774;23;20432;-81
2021/03/08 08:29:49;;;;;;;23.90;2.28;;;15.90;56.60;;;;;;6191674;23;20099;-80
2021/03/08 08:32:16;;;;;;;14.43;1.60;;;15.90;56.60;;;;;;6227773;23;20071;-80
2021/03/08 08:34:44;;;;;;;10.30;2.55;;;16.00;56.60;;;;;;6219381;23;20020;-80
2021/03/08 08:37:13;;;;;;;13.10;1.98;;;16.00;56.60;;;;;;6218667;23;20043;-82
2021/03/08 08:40:01;;;;;;;12.80;2.17;;;16.00;56.60;;;;;;6228193;23;20087;-80
2021/03/08 08:42:29;;;;;;;10.52;1.20;;;16.00;56.60;;;;;;6218106;23;20059;-81
2021/03/08 08:45:00;;;;;;;13.13;1.70;;;16.10;56.60;;;;;;6227692;23;20035;-81
2021/03/08 08:47:35;;;;;;;7.10;1.17;;;16.10;56.60;;;;;;6219451;23;20027;-80
2021/03/08 08:50:06;;;;;;;7.95;1.83;;;16.10;56.40;;;;;;6218038;23;20432;-81
2021/03/08 08:52:50;;;;;;;13.02;1.73;;;16.10;56.50;;;;;;6228172;23;20083;-81
2021/03/08 08:55:22;;;;;;;5.85;1.08;;;16.20;56.50;;;;;;6202042;23;20071;-81
2021/03/08 08:58:18;;;;;;;10.05;2.25;;;16.10;56.60;;;;;;6218294;23;20082;-80
2021/03/08 09:01:04;;;;;;;8.32;1.92;;;16.10;56.50;;;;;;6202252;23;20013;-81
2021/03/08 09:03:55;;;;;;;8.20;1.48;;;16.10;56.60;;;;;;6218767;23;20015;-80
2021/03/08 09:06:40;;;;;;;8.02;1.50;;;16.20;56.60;;;;;;6205264;23;20020;-81
2021/03/08 09:09:06;;;;;;;7.30;1.40;;;16.20;56.60;;;;;;6228122;23;20027;-82
2021/03/08 09:11:49;;;;;;;7.07;1.35;;;16.20;56.70;;;;;;6218682;23;20024;-80
2021/03/08 09:14:30;;;;;;;8.02;1.35;;;16.20;56.60;;;;;;6217487;23;20013;-78
2021/03/08 09:17:05;;;;;;;8.90;1.10;;;16.20;56.70;;;;;;6227791;23;20422;-80
2021/03/08 09:19:31;;;;;;;12.85;1.40;;;16.30;56.60;;;;;;6227934;23;20430;-80
2021/03/08 09:22:24;;;;;;;8.95;1.73;;;16.30;56.40;;;;;;6227807;23;20021;-79
2021/03/08 09:24:55;;;;;;;7.47;0.95;;;16.30;56.30;;;;;;6227630;23;20024;-78
2021/03/08 09:27:23;;;;;;;10.48;1.88;;;16.30;56.50;;;;;;6227964;23;20016;-79
2021/03/08 09:29:50;;;;;;;10.25;1.60;;;16.30;56.60;;;;;;6227677;23;20016;-80
2021/03/08 09:32:17;;;;;;;14.75;1.38;;;16.30;56.50;;;;;;6217933;23;20031;-80
2021/03/08 09:34:43;;;;;;;7.90;1.42;;;16.40;56.30;;;;;;6227617;23;20430;-79
2021/03/08 09:37:10;;;;;;;6.18;1.00;;;16.40;56.10;;;;;;6217606;23;20009;-79
2021/03/08 09:39:50;;;;;;;9.77;1.83;;;16.40;56.00;;;;;;6227679;23;20410;-80
2021/03/08 09:42:17;;;;;;;8.93;1.35;;;16.50;55.90;;;;;;6227389;23;20020;-79
2021/03/08 09:44:44;;;;;;;5.78;1.05;;;16.50;55.20;;;;;;6227450;23;20318;-79
2021/03/08 09:47:10;;;;;;;9.70;2.20;;;16.50;55.20;;;;;;6220083;23;20025;-79
2021/03/08 09:49:46;;;;;;;6.63;1.30;;;16.40;56.20;;;;;;6217838;23;20008;-79
2021/03/08 09:52:12;;;;;;;7.65;1.13;;;16.40;55.60;;;;;;6217987;23;20012;-79
2021/03/08 09:54:49;;;;;;;7.20;1.35;;;16.40;55.80;;;;;;6218260;23;20353;-79
2021/03/08 09:57:39;;;;;;;16.13;1.45;;;16.40;55.70;;;;;;6227616;23;20012;-78
2021/03/08 10:00:14;;;;;;;8.35;1.10;;;16.40;55.50;;;;;;6227754;23;20039;-81
2021/03/08 10:02:43;;;;;;;11.60;1.40;;;16.40;55.50;;;;;;6228279;23;20476;-87
2021/03/08 10:05:13;;;;;;;7.38;1.48;;;16.30;55.40;;;;;;6217502;23;20009;-80
2021/03/08 10:07:56;;;;;;;11.50;1.42;;;16.30;55.20;;;;;;6226917;23;20020;-80
2021/03/08 10:10:25;;;;;;;5.53;0.95;;;16.40;55.10;;;;;;6217180;23;20019;-80
2021/03/08 10:13:02;;;;;;;9.30;1.60;;;16.40;55.10;;;;;;6227362;23;20008;-82
2021/03/08 10:15:38;;;;;;;12.73;1.35;;;16.50;55.10;;;;;;6191682;23;20091;-79
2021/03/08 10:18:04;;;;;;;5.45;1.25;;;16.50;55.10;;;;;;6227479;23;20427;-78
2021/03/08 10:20:32;;;;;;;8.73;1.23;;;16.50;55.20;;;;;;6227119;23;20084;-79
2021/03/08 10:22:58;;;;;;;7.00;0.98;;;16.50;55.30;;;;;;6227296;23;20335;-78
2021/03/08 10:25:34;;;;;;;16.88;1.15;;;16.50;55.40;;;;;;6227323;23;20082;-78
2021/03/08 10:28:04;;;;;;;7.40;1.30;;;16.50;55.40;;;;;;6227412;23;20016;-78
2021/03/08 10:30:32;;;;;;;5.18;0.95;;;16.50;55.60;;;;;;6227545;23;20012;-78
2021/03/08 10:33:06;;;;;;;5.95;1.10;;;16.60;55.70;;;;;;6227634;23;20036;-78
2021/03/08 10:35:38;;;;;;;7.15;1.05;;;16.50;55.70;;;;;;6228223;23;20019;-78
2021/03/08 10:38:05;;;;;;;8.32;1.20;;;16.50;55.70;;;;;;6227405;23;20012;-77
2021/03/08 10:40:31;;;;;;;6.85;1.08;;;16.50;55.80;;;;;;6221492;23;20027;-78
2021/03/08 10:42:59;;;;;;;13.63;0.98;;;16.50;55.90;;;;;;6227466;23;20418;-79
2021/03/08 10:45:26;;;;;;;6.05;1.08;;;16.50;55.80;;;;;;6227057;23;20020;-78
2021/03/08 10:48:06;;;;;;;4.10;1.05;;;16.60;55.90;;;;;;6228116;23;20031;-78
2021/03/08 10:50:47;;;;;;;7.00;0.70;;;16.60;55.80;;;;;;6227845;23;20028;-78
2021/03/08 10:53:14;;;;;;;5.60;1.05;;;16.60;55.90;;;;;;6228534;23;20102;-76
2021/03/08 10:55:40;;;;;;;7.32;0.80;;;16.60;56.00;;;;;;6217215;23;20013;-79
2021/03/08 10:58:07;;;;;;;8.32;1.67;;;16.60;56.00;;;;;;6227625;23;20432;-79
2021/03/08 11:00:34;;;;;;;8.38;1.25;;;16.60;56.00;;;;;;6218618;23;20021;-79
2021/03/08 11:03:01;;;;;;;9.98;1.23;;;16.60;55.90;;;;;;6201417;23;20017;-82
2021/03/08 11:05:30;;;;;;;11.55;1.52;;;16.70;56.10;;;;;;6202527;23;20087;-79
2021/03/08 11:07:57;;;;;;;14.82;2.28;;;16.70;56.00;;;;;;6227682;23;20012;-80
2021/03/08 11:10:37;;;;;;;5.85;1.05;;;16.70;55.90;;;;;;6227665;23;20437;-81
2021/03/08 11:13:08;;;;;;;12.27;1.35;;;16.80;55.80;;;;;;6217331;23;20020;-78
2021/03/08 11:15:35;;;;;;;12.52;1.90;;;16.80;55.90;;;;;;6227329;23;20021;-81
2021/03/08 11:18:02;;;;;;;9.85;1.67;;;16.80;54.50;;;;;;6217593;23;20013;-81
2021/03/08 11:20:34;;;;;;;12.90;1.83;;;16.70;54.00;;;;;;6201315;23;20062;-82
2021/03/08 11:23:05;;;;;;;12.40;1.98;;;16.60;54.60;;;;;;6217087;23;20418;-81
2021/03/08 11:25:40;;;;;;;13.43;2.60;;;16.60;52.10;;;;;;6217344;23;20087;-80
2021/03/08 11:28:13;;;;;;;17.05;2.03;;;16.50;49.70;;;;;;6227769;23;20347;-79
2021/03/08 11:30:50;;;;;;;7.28;1.80;;;16.30;51.30;;;;;;6217590;23;20008;-78
2021/03/08 11:33:17;;;;;;;11.05;1.90;;;16.20;50.90;;;;;;6228253;23;20386;-80
2021/03/08 11:35:52;;;;;;;10.25;2.28;;;16.10;51.10;;;;;;6228919;23;20016;-80
2021/03/08 11:38:23;;;;;;;7.63;1.98;;;16.10;51.00;;;;;;6229044;23;20012;-79
2021/03/08 11:40:50;;;;;;;12.10;1.67;;;16.10;51.90;;;;;;6219313;23;20013;-79
2021/03/08 11:43:20;;;;;;;11.20;1.55;;;16.10;52.60;;;;;;6229128;23;20077;-79
2021/03/08 11:45:46;;;;;;;6.03;1.48;;;16.10;53.10;;;;;;6227563;23;20016;-80
2021/03/08 11:48:12;;;;;;;7.50;1.65;;;16.10;53.30;;;;;;6229008;23;20100;-80
2021/03/08 11:50:39;;;;;;;5.82;1.63;;;16.10;53.50;;;;;;6219811;23;20294;-79
2021/03/08 11:53:05;;;;;;;4.78;1.30;;;16.10;53.60;;;;;;6229293;23;20024;-79
2021/03/08 11:55:31;;;;;;;4.13;1.05;;;16.10;53.70;;;;;;6229567;23;20035;-79
2021/03/08 11:57:57;;;;;;;9.07;1.80;;;16.10;53.80;;;;;;6228746;23;20023;-79
2021/03/08 12:00:25;;;;;;;7.85;1.27;;;16.10;53.80;;;;;;6229772;23;20020;-80
2021/03/08 12:02:52;;;;;;;6.35;1.17;;;16.10;53.90;;;;;;6228755;23;20040;-79
2021/03/08 12:05:19;;;;;;;7.30;1.90;;;16.10;53.90;;;;;;6229079;23;20079;-79
2021/03/08 12:07:45;;;;;;;6.60;1.48;;;16.10;54.00;;;;;;6229577;23;20483;-80
2021/03/08 12:10:13;;;;;;;6.38;1.65;;;16.10;54.00;;;;;;6229015;23;20066;-78
2021/03/08 12:12:39;;;;;;;4.47;1.52;;;16.10;54.00;;;;;;6229072;23;20021;-79
2021/03/08 12:15:07;;;;;;;6.22;1.58;;;16.10;54.00;;;;;;6229770;23;20100;-79
2021/03/08 12:17:33;;;;;;;4.45;1.40;;;16.10;54.10;;;;;;6228545;23;20013;-79
2021/03/08 12:20:00;;;;;;;5.60;1.42;;;16.10;54.00;;;;;;6192834;23;20027;-79
2021/03/08 12:22:26;;;;;;;5.22;1.58;;;16.10;54.10;;;;;;6228904;23;20012;-79
2021/03/08 12:24:52;;;;;;;6.95;1.50;;;16.00;54.10;;;;;;6228460;23;20027;-79
2021/03/08 12:27:18;;;;;;;7.32;1.63;;;16.00;54.10;;;;;;6229635;23;20390;-79
2021/03/08 12:29:44;;;;;;;5.97;1.67;;;16.00;54.10;;;;;;6228716;23;20077;-79
2021/03/08 12:32:10;;;;;;;5.00;1.70;;;16.00;54.10;;;;;;6229387;23;20040;-79
2021/03/08 12:34:36;;;;;;;6.97;1.63;;;16.00;54.10;;;;;;6228750;23;20020;-79
2021/03/08 12:37:02;;;;;;;6.25;1.77;;;16.00;54.10;;;;;;6228833;23;20086;-79
2021/03/08 12:39:28;;;;;;;5.85;1.80;;;16.00;54.20;;;;;;6228754;23;20012;-79
2021/03/08 12:41:54;;;;;;;4.65;1.30;;;16.00;54.20;;;;;;6229472;23;20084;-79
2021/03/08 12:44:20;;;;;;;6.93;1.92;;;16.00;54.10;;;;;;6228779;23;20401;-79
2021/03/08 12:46:46;;;;;;;5.70;1.48;;;16.00;54.10;;;;;;6223326;23;20013;-79
2021/03/08 12:49:13;;;;;;;5.20;1.75;;;16.00;54.20;;;;;;6229468;23;20030;-79
2021/03/08 12:51:38;;;;;;;7.25;2.25;;;16.00;54.20;;;;;;6218758;23;20016;-79
2021/03/08 12:54:04;;;;;;;5.35;1.58;;;16.00;54.80;;;;;;6203189;23;20017;-79
2021/03/08 12:56:30;;;;;;;6.00;1.75;;;15.90;54.20;;;;;;6228902;23;20024;-79
2021/03/08 12:58:56;;;;;;;6.05;2.03;;;16.00;54.20;;;;;;6229187;23;20055;-79
2021/03/08 13:01:23;;;;;;;6.38;1.75;;;15.90;54.20;;;;;;6228570;23;20417;-79
2021/03/08 13:03:50;;;;;;;5.75;1.48;;;15.90;54.20;;;;;;6228249;23;20051;-79
2021/03/08 13:06:17;;;;;;;6.57;1.65;;;15.90;54.20;;;;;;6228163;23;20302;-79
2021/03/08 13:08:43;;;;;;;3.95;1.40;;;15.90;54.20;;;;;;6228320;23;20024;-78
2021/03/08 13:11:08;;;;;;;5.97;2.05;;;15.90;54.20;;;;;;6202215;23;20071;-79
2021/03/08 13:13:34;;;;;;;4.50;1.73;;;15.90;54.20;;;;;;6228672;23;20105;-78
2021/03/08 13:16:00;;;;;;;5.35;1.75;;;15.90;54.30;;;;;;6228144;23;20020;-79
2021/03/08 13:18:26;;;;;;;5.78;1.77;;;15.90;54.30;;;;;;6228667;23;20365;-79
2021/03/08 13:20:52;;;;;;;3.53;1.45;;;15.90;54.30;;;;;;6228173;23;20048;-79
2021/03/08 13:23:17;;;;;;;6.05;1.80;;;15.90;54.30;;;;;;6202296;23;20012;-78
2021/03/08 13:25:43;;;;;;;5.13;1.58;;;15.90;54.30;;;;;;6229316;23;20066;-79
2021/03/08 13:28:09;;;;;;;5.75;1.95;;;15.80;54.20;;;;;;6228571;23;20016;-79
2021/03/08 13:30:35;;;;;;;4.22;2.03;;;15.80;54.20;;;;;;6228233;23;20039;-79
2021/03/08 13:33:01;;;;;;;5.18;1.73;;;15.80;54.20;;;;;;6202020;23;20017;-79
2021/03/08 13:35:27;;;;;;;7.13;1.60;;;15.80;54.20;;;;;;6228319;23;20071;-79
2021/03/08 13:37:53;;;;;;;4.07;1.83;;;15.80;54.20;;;;;;6218159;23;20290;-79
2021/03/08 13:40:19;;;;;;;4.47;1.80;;;15.80;54.20;;;;;;6228282;23;20024;-79
2021/03/08 13:42:45;;;;;;;5.05;1.60;;;15.80;54.20;;;;;;6228158;23;20058;-79
2021/03/08 13:45:12;;;;;;;5.22;1.63;;;15.80;54.10;;;;;;6228031;23;20013;-79
2021/03/08 13:47:39;;;;;;;4.63;1.70;;;15.80;54.10;;;;;;6219715;23;20121;-79
2021/03/08 13:50:07;;;;;;;5.43;2.17;;;15.80;54.20;;;;;;6228580;23;20024;-79
2021/03/08 13:52:33;;;;;;;4.75;2.08;;;15.80;54.10;;;;;;6228446;23;20020;-80
2021/03/08 13:54:59;;;;;;;4.78;1.50;;;15.70;54.40;;;;;;6228175;23;20012;-81
2021/03/08 13:57:25;;;;;;;16.20;3.83;;;15.70;54.10;;;;;;6227815;23;20036;-77
2021/03/08 13:59:50;;;;;;;17.00;2.53;;;15.70;53.80;;;;;;6227634;23;20472;-82
2021/03/08 14:02:17;;;;;;;10.75;2.78;;;15.70;54.60;;;;;;6228211;23;20013;-79
2021/03/08 14:04:43;;;;;;;17.17;2.78;;;15.60;55.40;;;;;;6227730;23;20017;-79
2021/03/08 14:07:09;;;;;;;12.90;2.72;;;15.70;56.00;;;;;;6227418;23;20009;-78
2021/03/08 14:09:36;;;;;;;14.20;2.67;;;15.60;56.20;;;;;;6227678;23;20017;-81
2021/03/08 14:12:03;;;;;;;15.90;3.13;;;15.70;56.70;;;;;;6226621;23;20095;-79
2021/03/08 14:14:29;;;;;;;16.13;2.83;;;15.80;56.80;;;;;;6227853;23;20023;-80
2021/03/08 14:16:55;;;;;;;12.30;2.75;;;15.70;56.90;;;;;;6227517;23;20017;-79
2021/03/08 14:19:21;;;;;;;15.75;2.88;;;15.80;57.20;;;;;;6227986;23;20016;-79
2021/03/08 14:21:47;;;;;;;9.48;2.17;;;15.80;57.70;;;;;;6227832;23;20291;-81
2021/03/08 14:24:13;;;;;;;7.70;4.05;;;15.80;57.60;;;;;;6191219;23;20031;-80
2021/03/08 14:26:38;;;;;;;9.18;3.40;;;15.80;56.50;;;;;;6227324;23;20092;-81
2021/03/08 14:29:04;;;;;;;9.88;2.90;;;15.70;56.20;;;;;;6217231;23;20009;-85
2021/03/08 14:31:30;;;;;;;9.15;2.10;;;15.70;56.70;;;;;;6191056;23;20012;-82
2021/03/08 14:33:56;;;;;;;12.40;2.72;;;15.80;57.10;;;;;;6201408;23;20009;-80
2021/03/08 14:36:22;;;;;;;10.32;2.72;;;15.80;57.40;;;;;;6226317;23;20013;-84
2021/03/08 14:38:48;;;;;;;7.78;2.45;;;15.80;57.50;;;;;;6226407;23;20040;-82
2021/03/08 14:41:14;;;;;;;5.60;2.28;;;15.90;57.80;;;;;;6201324;23;20426;-84
2021/03/08 14:43:40;;;;;;;10.05;2.65;;;15.90;58.00;;;;;;6216315;23;20016;-81
2021/03/08 14:46:06;;;;;;;10.05;2.40;;;15.90;57.90;;;;;;6225238;23;20488;-79
2021/03/08 14:48:32;;;;;;;6.45;1.90;;;15.90;57.90;;;;;;6227768;23;20079;-79
2021/03/08 14:50:57;;;;;;;5.78;1.65;;;16.00;57.90;;;;;;6227746;23;20095;-76
2021/03/08 14:53:24;;;;;;;9.95;3.75;;;16.10;57.80;;;;;;6191523;23;20083;-80
2021/03/08 14:55:50;;;;;;;9.32;5.53;;;16.20;58.00;;;;;;6227509;23;20423;-79
2021/03/08 14:58:18;;;;;;;11.48;5.63;;;16.20;57.80;;;;;;6223360;23;20017;-81
2021/03/08 15:00:44;;;;;;;12.40;5.70;;;16.20;57.50;;;;;;6217155;23;20092;-78
2021/03/08 15:03:11;;;;;;;13.77;7.32;;;16.10;57.40;;;;;;6217041;23;20040;-85
2021/03/08 15:05:40;;;;;;;13.15;8.05;;;16.10;57.00;;;;;;6216379;23;20144;-84
2021/03/08 15:08:24;;;;;;;12.40;9.70;;;16.00;56.70;;;;;;6192139;23;20081;-87
2021/03/08 15:10:52;;;;;;;18.40;10.65;;;16.00;57.10;;;;;;6166575;23;20341;-84
2021/03/08 15:13:21;;;;;;;15.70;9.38;;;15.80;58.20;;;;;;6168474;23;20012;-84
2021/03/08 15:15:47;;;;;;;15.70;9.95;;;15.80;56.50;;;;;;6193199;23;20421;-86
2021/03/08 15:18:13;;;;;;;14.80;11.40;;;15.80;54.70;;;;;;6217765;23;20054;-81
2021/03/08 15:20:39;;;;;;;16.70;10.18;;;15.70;53.60;;;;;;6219383;23;20119;-80
2021/03/08 15:23:04;;;;;;;21.23;13.30;;;15.60;54.60;;;;;;6227891;23;20023;-82
2021/03/08 15:25:36;;;;;;;34.63;12.55;;;15.50;56.20;;;;;;6219180;23;20104;-84
2021/03/08 15:28:02;;;;;;;22.42;14.48;;;15.50;58.10;;;;;;6229885;23;20016;-81
2021/03/08 15:30:28;;;;;;;20.70;13.60;;;15.50;57.50;;;;;;6229872;23;20023;-79
2021/03/08 15:32:54;;;;;;;18.83;14.15;;;15.40;57.70;;;;;;6229061;23;20023;-80
2021/03/08 15:35:20;;;;;;;23.58;14.50;;;15.40;55.80;;;;;;6229149;23;20382;-81